createdAt,value
2023-02-03T00:00:03.366Z,953.83
2023-02-03T00:00:13.373Z,953.83
2023-02-03T00:00:23.694Z,953.82
2023-02-03T00:00:33.375Z,953.81
2023-02-03T00:00:43.369Z,953.79
2023-02-03T00:00:53.370Z,953.78
2023-02-03T00:01:03.374Z,953.78
2023-02-03T00:01:13.379Z,953.78
2023-02-03T00:01:23.373Z,953.78
2023-02-03T00:01:33.407Z,953.78
2023-02-03T00:01:43.429Z,953.77
2023-02-03T00:01:53.472Z,953.76
2023-02-03T00:02:03.472Z,953.77
2023-02-03T00:02:13.519Z,953.77
2023-02-03T00:02:23.383Z,953.76
2023-02-03T00:02:33.384Z,953.76
2023-02-03T00:02:43.437Z,953.75
2023-02-03T00:02:53.444Z,953.75
2023-02-03T00:03:03.399Z,953.74
2023-02-03T00:03:13.444Z,953.72
2023-02-03T00:03:23.417Z,953.74
2023-02-03T00:03:33.402Z,953.74
2023-02-03T00:03:43.386Z,953.74
2023-02-03T00:03:53.388Z,953.73
2023-02-03T00:04:03.387Z,953.73
2023-02-03T00:04:13.396Z,953.75
2023-02-03T00:04:23.384Z,953.74
2023-02-03T00:04:33.385Z,953.76
2023-02-03T00:04:43.393Z,953.76
2023-02-03T00:04:53.391Z,953.75
2023-02-03T00:05:03.390Z,953.73
2023-02-03T00:05:13.394Z,953.71
2023-02-03T00:05:23.429Z,953.71
2023-02-03T00:05:33.385Z,953.71
2023-02-03T00:05:43.387Z,953.71
2023-02-03T00:05:53.394Z,953.69
2023-02-03T00:06:03.403Z,953.70
2023-02-03T00:06:13.409Z,953.70
2023-02-03T00:06:23.391Z,953.69
2023-02-03T00:06:33.419Z,953.67
2023-02-03T00:06:43.402Z,953.65
2023-02-03T00:06:53.398Z,953.68
2023-02-03T00:07:03.396Z,953.69
2023-02-03T00:07:13.412Z,953.69
2023-02-03T00:07:23.398Z,953.70
2023-02-03T00:07:33.397Z,953.72
2023-02-03T00:07:43.406Z,953.71
2023-02-03T00:07:53.409Z,953.69
2023-02-03T00:08:03.397Z,953.69
2023-02-03T00:08:13.405Z,953.70
2023-02-03T00:08:23.398Z,953.70
2023-02-03T00:08:33.406Z,953.72
2023-02-03T00:08:43.404Z,953.73
2023-02-03T00:08:53.406Z,953.73
2023-02-03T00:09:03.412Z,953.74
2023-02-03T00:09:13.398Z,953.72
2023-02-03T00:09:23.403Z,953.71
2023-02-03T00:09:33.405Z,953.70
2023-02-03T00:09:43.410Z,953.68
2023-02-03T00:09:53.412Z,953.68
2023-02-03T00:10:03.415Z,953.69
2023-02-03T00:10:13.398Z,953.70
2023-02-03T00:10:23.566Z,953.71
2023-02-03T00:10:33.409Z,953.69
2023-02-03T00:10:43.410Z,953.67
2023-02-03T00:10:53.412Z,953.66
2023-02-03T00:11:03.410Z,953.67
2023-02-03T00:11:13.408Z,953.69
2023-02-03T00:11:23.411Z,953.72
2023-02-03T00:11:33.415Z,953.71
2023-02-03T00:11:43.409Z,953.71
2023-02-03T00:11:53.413Z,953.72
2023-02-03T00:12:03.419Z,953.61
2023-02-03T00:12:13.416Z,953.61
2023-02-03T00:12:23.424Z,953.55
2023-02-03T00:12:33.419Z,953.63
2023-02-03T00:12:43.427Z,953.64
2023-02-03T00:12:53.413Z,953.65
2023-02-03T00:13:03.416Z,953.59
2023-02-03T00:13:13.422Z,953.60
2023-02-03T00:13:23.421Z,953.56
2023-02-03T00:13:33.420Z,953.60
2023-02-03T00:13:43.423Z,953.60
2023-02-03T00:13:53.420Z,953.65
2023-02-03T00:14:03.420Z,953.62
2023-02-03T00:14:13.438Z,953.57
2023-02-03T00:14:23.422Z,953.60
2023-02-03T00:14:33.422Z,953.57
2023-02-03T00:14:43.423Z,953.59
2023-02-03T00:14:53.425Z,953.58
2023-02-03T00:15:03.432Z,953.61
2023-02-03T00:15:13.426Z,953.58
2023-02-03T00:15:23.454Z,953.59
2023-02-03T00:15:33.429Z,953.59
2023-02-03T00:15:43.444Z,953.59
2023-02-03T00:15:53.428Z,953.60
2023-02-03T00:16:03.485Z,953.58
2023-02-03T00:16:13.494Z,953.54
2023-02-03T00:16:23.440Z,953.58
2023-02-03T00:16:33.539Z,953.62
2023-02-03T00:16:43.472Z,953.59
2023-02-03T00:16:53.449Z,953.56
2023-02-03T00:17:03.442Z,953.57
2023-02-03T00:17:13.431Z,953.51
2023-02-03T00:17:23.437Z,953.52
2023-02-03T00:17:33.443Z,953.55
2023-02-03T00:17:43.440Z,953.57
2023-02-03T00:17:53.453Z,953.55
2023-02-03T00:18:03.444Z,953.57
2023-02-03T00:18:14.301Z,953.60
2023-02-03T00:18:23.434Z,953.54
2023-02-03T00:18:33.434Z,953.52
2023-02-03T00:18:43.437Z,953.54
2023-02-03T00:18:53.477Z,953.54
2023-02-03T00:19:03.450Z,953.55
2023-02-03T00:19:13.443Z,953.55
2023-02-03T00:19:23.443Z,953.53
2023-02-03T00:19:33.448Z,953.53
2023-02-03T00:19:43.445Z,953.54
2023-02-03T00:19:53.533Z,953.54
2023-02-03T00:20:03.447Z,953.51
2023-02-03T00:20:13.441Z,953.51
2023-02-03T00:20:23.685Z,953.54
2023-02-03T00:20:33.451Z,953.52
2023-02-03T00:20:43.444Z,953.51
2023-02-03T00:20:53.475Z,953.51
2023-02-03T00:21:03.450Z,953.52
2023-02-03T00:21:13.449Z,953.53
2023-02-03T00:21:23.460Z,953.53
2023-02-03T00:21:33.452Z,953.52
2023-02-03T00:21:43.460Z,953.52
2023-02-03T00:21:53.458Z,953.56
2023-02-03T00:22:03.472Z,953.55
2023-02-03T00:22:13.466Z,953.54
2023-02-03T00:22:23.463Z,953.54
2023-02-03T00:22:33.455Z,953.53
2023-02-03T00:22:43.453Z,953.45
2023-02-03T00:22:53.455Z,953.49
2023-02-03T00:23:03.459Z,953.50
2023-02-03T00:23:13.464Z,953.54
2023-02-03T00:23:23.464Z,953.57
2023-02-03T00:23:33.483Z,953.57
2023-02-03T00:23:43.478Z,953.56
2023-02-03T00:23:53.470Z,953.57
2023-02-03T00:24:03.475Z,953.55
2023-02-03T00:24:13.467Z,953.57
2023-02-03T00:24:23.475Z,953.53
2023-02-03T00:24:33.470Z,953.59
2023-02-03T00:24:43.469Z,953.61
2023-02-03T00:24:53.468Z,953.60
2023-02-03T00:25:03.480Z,953.57
2023-02-03T00:25:13.488Z,953.58
2023-02-03T00:25:23.476Z,953.55
2023-02-03T00:25:33.467Z,953.58
2023-02-03T00:25:43.468Z,953.58
2023-02-03T00:25:53.467Z,953.58
2023-02-03T00:26:03.486Z,953.57
2023-02-03T00:26:13.476Z,953.52
2023-02-03T00:26:23.473Z,953.54
2023-02-03T00:26:33.484Z,953.53
2023-02-03T00:26:43.484Z,953.50
2023-02-03T00:26:53.482Z,953.48
2023-02-03T00:27:03.482Z,953.44
2023-02-03T00:27:13.479Z,953.44
2023-02-03T00:27:23.475Z,953.41
2023-02-03T00:27:33.479Z,953.37
2023-02-03T00:27:43.511Z,953.34
2023-02-03T00:27:53.501Z,953.32
2023-02-03T00:28:03.477Z,953.28
2023-02-03T00:28:13.528Z,953.31
2023-02-03T00:28:23.494Z,953.27
2023-02-03T00:28:33.481Z,953.26
2023-02-03T00:28:43.492Z,953.25
2023-02-03T00:28:53.483Z,953.24
2023-02-03T00:29:03.487Z,953.26
2023-02-03T00:29:13.485Z,953.25
2023-02-03T00:29:23.480Z,953.28
2023-02-03T00:29:33.488Z,953.29
2023-02-03T00:29:43.497Z,953.27
2023-02-03T00:29:53.489Z,953.18
2023-02-03T00:30:03.486Z,953.14
2023-02-03T00:30:13.486Z,953.25
2023-02-03T00:30:23.655Z,953.22
2023-02-03T00:30:33.496Z,953.17
2023-02-03T00:30:43.491Z,953.26
2023-02-03T00:30:53.492Z,953.29
2023-02-03T00:31:03.501Z,953.27
2023-02-03T00:31:13.576Z,953.25
2023-02-03T00:31:23.625Z,953.23
2023-02-03T00:31:33.590Z,953.28
2023-02-03T00:31:43.661Z,953.28
2023-02-03T00:31:53.731Z,953.26
2023-02-03T00:32:03.592Z,953.27
2023-02-03T00:32:13.611Z,953.27
2023-02-03T00:32:23.671Z,953.27
2023-02-03T00:32:33.643Z,953.26
2023-02-03T00:32:43.525Z,953.23
2023-02-03T00:32:53.508Z,953.27
2023-02-03T00:33:03.510Z,953.29
2023-02-03T00:33:13.506Z,953.30
2023-02-03T00:33:23.513Z,953.30
2023-02-03T00:33:33.516Z,953.31
2023-02-03T00:33:43.519Z,953.32
2023-02-03T00:33:53.507Z,953.32
2023-02-03T00:34:03.505Z,953.33
2023-02-03T00:34:13.507Z,953.36
2023-02-03T00:34:23.517Z,953.39
2023-02-03T00:34:33.510Z,953.37
2023-02-03T00:34:43.511Z,953.40
2023-02-03T00:34:53.525Z,953.40
2023-02-03T00:35:03.514Z,953.41
2023-02-03T00:35:13.506Z,953.43
2023-02-03T00:35:23.511Z,953.43
2023-02-03T00:35:33.514Z,953.45
2023-02-03T00:35:43.513Z,953.48
2023-02-03T00:35:53.513Z,953.49
2023-02-03T00:36:03.519Z,953.42
2023-02-03T00:36:13.517Z,953.42
2023-02-03T00:36:23.511Z,953.42
2023-02-03T00:36:33.515Z,953.40
2023-02-03T00:36:43.515Z,953.41
2023-02-03T00:36:53.524Z,953.42
2023-02-03T00:37:03.532Z,953.46
2023-02-03T00:37:13.561Z,953.45
2023-02-03T00:37:23.529Z,953.43
2023-02-03T00:37:33.533Z,953.41
2023-02-03T00:37:43.518Z,953.40
2023-02-03T00:37:53.543Z,953.36
2023-02-03T00:38:03.546Z,953.35
2023-02-03T00:38:13.523Z,953.35
2023-02-03T00:38:23.545Z,953.35
2023-02-03T00:38:33.525Z,953.34
2023-02-03T00:38:43.527Z,953.34
2023-02-03T00:38:53.527Z,953.31
2023-02-03T00:39:03.535Z,953.32
2023-02-03T00:39:13.542Z,953.31
2023-02-03T00:39:23.538Z,953.31
2023-02-03T00:39:33.529Z,953.28
2023-02-03T00:39:43.531Z,953.28
2023-02-03T00:39:53.531Z,953.29
2023-02-03T00:40:03.525Z,953.27
2023-02-03T00:40:13.533Z,953.28
2023-02-03T00:40:23.760Z,953.24
2023-02-03T00:40:33.530Z,953.33
2023-02-03T00:40:43.530Z,953.34
2023-02-03T00:40:53.549Z,953.25
2023-02-03T00:41:03.530Z,953.20
2023-02-03T00:41:13.539Z,953.22
2023-02-03T00:41:23.546Z,953.24
2023-02-03T00:41:33.536Z,953.22
2023-02-03T00:41:43.542Z,953.21
2023-02-03T00:41:53.535Z,953.20
2023-02-03T00:42:03.537Z,953.15
2023-02-03T00:42:13.545Z,953.13
2023-02-03T00:42:23.546Z,953.09
2023-02-03T00:42:33.547Z,953.17
2023-02-03T00:42:43.575Z,953.16
2023-02-03T00:42:53.539Z,953.16
2023-02-03T00:43:03.550Z,953.18
2023-02-03T00:43:13.542Z,953.18
2023-02-03T00:43:23.557Z,953.15
2023-02-03T00:43:33.553Z,953.23
2023-02-03T00:43:43.555Z,953.21
2023-02-03T00:43:53.553Z,953.21
2023-02-03T00:44:03.561Z,953.18
2023-02-03T00:44:13.549Z,953.20
2023-02-03T00:44:23.570Z,953.22
2023-02-03T00:44:33.549Z,953.22
2023-02-03T00:44:43.551Z,953.21
2023-02-03T00:44:53.552Z,953.22
2023-02-03T00:45:03.560Z,953.24
2023-02-03T00:45:13.556Z,953.25
2023-02-03T00:45:23.553Z,953.25
2023-02-03T00:45:33.560Z,953.29
2023-02-03T00:45:43.609Z,953.31
2023-02-03T00:45:53.600Z,953.30
2023-02-03T00:46:03.595Z,953.31
2023-02-03T00:46:13.631Z,953.32
2023-02-03T00:46:23.567Z,953.30
2023-02-03T00:46:33.563Z,953.30
2023-02-03T00:46:43.567Z,953.33
2023-02-03T00:46:53.580Z,953.34
2023-02-03T00:47:03.565Z,953.26
2023-02-03T00:47:13.584Z,953.25
2023-02-03T00:47:23.565Z,953.32
2023-02-03T00:47:33.797Z,953.28
2023-02-03T00:47:43.570Z,953.28
2023-02-03T00:47:53.584Z,953.26
2023-02-03T00:48:03.580Z,953.28
2023-02-03T00:48:13.574Z,953.31
2023-02-03T00:48:23.600Z,953.30
2023-02-03T00:48:33.583Z,953.31
2023-02-03T00:48:43.580Z,953.29
2023-02-03T00:48:53.583Z,953.32
2023-02-03T00:49:03.604Z,953.32
2023-02-03T00:49:13.563Z,953.31
2023-02-03T00:49:23.576Z,953.32
2023-02-03T00:49:33.579Z,953.30
2023-02-03T00:49:43.600Z,953.31
2023-02-03T00:49:53.583Z,953.30
2023-02-03T00:50:03.581Z,953.29
2023-02-03T00:50:13.600Z,953.30
2023-02-03T00:50:23.620Z,953.31
2023-02-03T00:50:33.589Z,953.32
2023-02-03T00:50:43.622Z,953.32
2023-02-03T00:50:53.584Z,953.33
2023-02-03T00:51:03.588Z,953.34
2023-02-03T00:51:13.592Z,953.32
2023-02-03T00:51:23.591Z,953.33
2023-02-03T00:51:33.606Z,953.29
2023-02-03T00:51:43.599Z,953.32
2023-02-03T00:51:53.589Z,953.35
2023-02-03T00:52:03.592Z,953.33
2023-02-03T00:52:13.603Z,953.34
2023-02-03T00:52:23.596Z,953.30
2023-02-03T00:52:33.595Z,953.32
2023-02-03T00:52:43.593Z,953.33
2023-02-03T00:52:53.599Z,953.34
2023-02-03T00:53:03.591Z,953.34
2023-02-03T00:53:13.599Z,953.36
2023-02-03T00:53:23.594Z,953.32
2023-02-03T00:53:33.607Z,953.31
2023-02-03T00:53:43.608Z,953.32
2023-02-03T00:53:53.602Z,953.31
2023-02-03T00:54:03.603Z,953.31
2023-02-03T00:54:13.630Z,953.33
2023-02-03T00:54:23.599Z,953.31
2023-02-03T00:54:33.897Z,953.32
2023-02-03T00:54:43.599Z,953.30
2023-02-03T00:54:53.602Z,953.29
2023-02-03T00:55:03.603Z,953.27
2023-02-03T00:55:13.612Z,953.24
2023-02-03T00:55:23.618Z,953.28
2023-02-03T00:55:33.605Z,953.29
2023-02-03T00:55:43.610Z,953.31
2023-02-03T00:55:53.607Z,953.31
2023-02-03T00:56:03.642Z,953.28
2023-02-03T00:56:13.612Z,953.28
2023-02-03T00:56:23.624Z,953.30
2023-02-03T00:56:33.611Z,953.28
2023-02-03T00:56:43.613Z,953.24
2023-02-03T00:56:53.611Z,953.20
2023-02-03T00:57:03.642Z,953.27
2023-02-03T00:57:13.617Z,953.27
2023-02-03T00:57:23.612Z,953.26
2023-02-03T00:57:33.618Z,953.27
2023-02-03T00:57:43.618Z,953.28
2023-02-03T00:57:53.619Z,953.26
2023-02-03T00:58:03.621Z,953.27
2023-02-03T00:58:13.626Z,953.16
2023-02-03T00:58:23.623Z,953.22
2023-02-03T00:58:33.617Z,953.24
2023-02-03T00:58:43.617Z,953.23
2023-02-03T00:58:53.616Z,953.25
2023-02-03T00:59:04.640Z,953.25
2023-02-03T00:59:13.643Z,953.26
2023-02-03T00:59:23.619Z,953.28
2023-02-03T00:59:33.634Z,953.21
2023-02-03T00:59:43.627Z,953.27
2023-02-03T00:59:53.650Z,953.30
2023-02-03T01:00:03.635Z,953.32
2023-02-03T01:00:13.640Z,953.26
2023-02-03T01:00:24.164Z,953.20
2023-02-03T01:00:33.636Z,953.21
2023-02-03T01:00:43.631Z,953.29
2023-02-03T01:00:53.671Z,953.23
2023-02-03T01:01:03.690Z,953.22
2023-02-03T01:01:13.660Z,953.26
2023-02-03T01:01:23.677Z,953.26
2023-02-03T01:01:33.654Z,953.27
2023-02-03T01:01:43.635Z,953.22
2023-02-03T01:01:53.734Z,953.24
2023-02-03T01:02:03.664Z,953.17
2023-02-03T01:02:13.741Z,953.25
2023-02-03T01:02:23.750Z,953.21
2023-02-03T01:02:33.694Z,953.24
2023-02-03T01:02:43.721Z,953.20
2023-02-03T01:02:53.634Z,953.22
2023-02-03T01:03:03.645Z,953.23
2023-02-03T01:03:13.647Z,953.20
2023-02-03T01:03:23.638Z,953.23
2023-02-03T01:03:33.640Z,953.23
2023-02-03T01:03:43.643Z,953.27
2023-02-03T01:03:53.637Z,953.19
2023-02-03T01:04:03.656Z,953.14
2023-02-03T01:04:13.646Z,953.24
2023-02-03T01:04:23.659Z,953.25
2023-02-03T01:04:33.649Z,953.19
2023-02-03T01:04:43.655Z,953.10
2023-02-03T01:04:53.653Z,953.24
2023-02-03T01:05:03.673Z,953.23
2023-02-03T01:05:13.650Z,953.21
2023-02-03T01:05:23.646Z,953.14
2023-02-03T01:05:33.651Z,953.11
2023-02-03T01:05:43.645Z,953.18
2023-02-03T01:05:53.646Z,953.14
2023-02-03T01:06:03.686Z,953.17
2023-02-03T01:06:13.650Z,953.12
2023-02-03T01:06:23.648Z,953.12
2023-02-03T01:06:33.650Z,953.06
2023-02-03T01:06:43.687Z,953.14
2023-02-03T01:06:53.652Z,953.10
2023-02-03T01:07:03.661Z,953.12
2023-02-03T01:07:13.678Z,953.04
2023-02-03T01:07:23.651Z,953.08
2023-02-03T01:07:33.684Z,953.12
2023-02-03T01:07:43.659Z,953.09
2023-02-03T01:07:53.657Z,953.11
2023-02-03T01:08:03.655Z,953.10
2023-02-03T01:08:13.669Z,953.13
2023-02-03T01:08:23.701Z,953.11
2023-02-03T01:08:33.666Z,953.10
2023-02-03T01:08:43.662Z,953.11
2023-02-03T01:08:53.658Z,953.14
2023-02-03T01:09:03.662Z,953.13
2023-02-03T01:09:13.657Z,953.11
2023-02-03T01:09:23.691Z,953.11
2023-02-03T01:09:33.667Z,953.12
2023-02-03T01:09:43.667Z,953.11
2023-02-03T01:09:53.687Z,953.13
2023-02-03T01:10:03.675Z,953.13
2023-02-03T01:10:13.690Z,953.15
2023-02-03T01:10:23.810Z,953.15
2023-02-03T01:10:33.671Z,953.17
2023-02-03T01:10:43.679Z,953.14
2023-02-03T01:10:53.670Z,953.17
2023-02-03T01:11:03.681Z,953.17
2023-02-03T01:11:13.709Z,953.08
2023-02-03T01:11:23.677Z,953.14
2023-02-03T01:11:33.671Z,953.18
2023-02-03T01:11:43.685Z,953.12
2023-02-03T01:11:53.678Z,953.13
2023-02-03T01:12:03.681Z,953.17
2023-02-03T01:12:13.681Z,953.14
2023-02-03T01:12:23.678Z,953.20
2023-02-03T01:12:33.686Z,953.19
2023-02-03T01:12:43.696Z,953.18
2023-02-03T01:12:53.679Z,953.18
2023-02-03T01:13:03.696Z,953.14
2023-02-03T01:13:13.678Z,953.15
2023-02-03T01:13:23.685Z,953.11
2023-02-03T01:13:33.699Z,953.14
2023-02-03T01:13:43.682Z,953.03
2023-02-03T01:13:53.687Z,953.11
2023-02-03T01:14:03.695Z,953.13
2023-02-03T01:14:13.691Z,953.13
2023-02-03T01:14:23.687Z,953.10
2023-02-03T01:14:33.686Z,953.10
2023-02-03T01:14:43.713Z,953.08
2023-02-03T01:14:53.707Z,953.10
2023-02-03T01:15:03.699Z,953.03
2023-02-03T01:15:13.693Z,953.07
2023-02-03T01:15:23.688Z,953.04
2023-02-03T01:15:33.694Z,953.01
2023-02-03T01:15:43.699Z,953.02
2023-02-03T01:15:53.693Z,953.03
2023-02-03T01:16:03.699Z,953.04
2023-02-03T01:16:13.703Z,953.03
2023-02-03T01:16:23.725Z,953.07
2023-02-03T01:16:33.814Z,953.07
2023-02-03T01:16:43.719Z,953.07
2023-02-03T01:16:53.746Z,953.08
2023-02-03T01:17:03.743Z,953.09
2023-02-03T01:17:13.712Z,953.04
2023-02-03T01:17:23.703Z,953.09
2023-02-03T01:17:33.740Z,953.05
2023-02-03T01:17:43.713Z,953.03
2023-02-03T01:17:53.700Z,953.02
2023-02-03T01:18:03.705Z,953.07
2023-02-03T01:18:13.719Z,953.10
2023-02-03T01:18:23.698Z,953.08
2023-02-03T01:18:33.711Z,953.05
2023-02-03T01:18:43.748Z,953.11
2023-02-03T01:18:53.711Z,953.15
2023-02-03T01:19:03.744Z,953.12
2023-02-03T01:19:13.705Z,953.12
2023-02-03T01:19:23.705Z,953.10
2023-02-03T01:19:33.708Z,953.08
2023-02-03T01:19:43.706Z,953.12
2023-02-03T01:19:53.705Z,953.09
2023-02-03T01:20:03.720Z,953.12
2023-02-03T01:20:13.712Z,953.12
2023-02-03T01:20:23.780Z,953.14
2023-02-03T01:20:33.715Z,953.13
2023-02-03T01:20:43.723Z,953.11
2023-02-03T01:20:53.710Z,953.11
2023-02-03T01:21:03.721Z,953.09
2023-02-03T01:21:13.716Z,953.10
2023-02-03T01:21:23.716Z,953.08
2023-02-03T01:21:33.714Z,953.10
2023-02-03T01:21:43.714Z,953.13
2023-02-03T01:21:53.716Z,953.13
2023-02-03T01:22:03.732Z,953.13
2023-02-03T01:22:13.724Z,953.14
2023-02-03T01:22:23.719Z,953.16
2023-02-03T01:22:33.738Z,953.16
2023-02-03T01:22:43.723Z,953.16
2023-02-03T01:22:53.732Z,953.21
2023-02-03T01:23:03.780Z,953.18
2023-02-03T01:23:13.740Z,953.17
2023-02-03T01:23:23.726Z,953.19
2023-02-03T01:23:33.746Z,953.19
2023-02-03T01:23:43.733Z,953.14
2023-02-03T01:23:53.739Z,953.17
2023-02-03T01:24:03.736Z,953.13
2023-02-03T01:24:13.736Z,953.12
2023-02-03T01:24:23.742Z,953.15
2023-02-03T01:24:33.734Z,953.16
2023-02-03T01:24:43.745Z,953.16
2023-02-03T01:24:53.734Z,953.12
2023-02-03T01:25:03.741Z,953.15
2023-02-03T01:25:13.737Z,953.15
2023-02-03T01:25:23.744Z,953.15
2023-02-03T01:25:33.741Z,953.12
2023-02-03T01:25:43.767Z,953.17
2023-02-03T01:25:53.747Z,953.17
2023-02-03T01:26:03.748Z,953.17
2023-02-03T01:26:13.737Z,953.17
2023-02-03T01:26:23.758Z,953.16
2023-02-03T01:26:33.749Z,953.18
2023-02-03T01:26:43.745Z,953.17
2023-02-03T01:26:53.750Z,953.16
2023-02-03T01:27:03.752Z,953.19
2023-02-03T01:27:13.742Z,953.18
2023-02-03T01:27:23.765Z,953.16
2023-02-03T01:27:33.768Z,953.17
2023-02-03T01:27:43.786Z,953.17
2023-02-03T01:27:53.792Z,953.19
2023-02-03T01:28:03.808Z,953.20
2023-02-03T01:28:13.847Z,953.18
2023-02-03T01:28:23.751Z,953.14
2023-02-03T01:28:33.754Z,953.10
2023-02-03T01:28:43.747Z,953.14
2023-02-03T01:28:53.765Z,953.18
2023-02-03T01:29:03.761Z,953.19
2023-02-03T01:29:13.786Z,953.23
2023-02-03T01:29:23.764Z,953.23
2023-02-03T01:29:33.773Z,953.21
2023-02-03T01:29:43.758Z,953.26
2023-02-03T01:29:53.762Z,953.22
2023-02-03T01:30:03.757Z,953.14
2023-02-03T01:30:13.784Z,953.16
2023-02-03T01:30:24.022Z,953.19
2023-02-03T01:30:33.812Z,953.13
2023-02-03T01:30:43.930Z,953.13
2023-02-03T01:30:53.828Z,953.16
2023-02-03T01:31:03.870Z,953.12
2023-02-03T01:31:13.879Z,953.13
2023-02-03T01:31:23.934Z,953.14
2023-02-03T01:31:33.889Z,953.18
2023-02-03T01:31:43.847Z,953.17
2023-02-03T01:31:53.914Z,953.15
2023-02-03T01:32:03.845Z,953.15
2023-02-03T01:32:13.774Z,953.14
2023-02-03T01:32:23.772Z,953.19
2023-02-03T01:32:33.768Z,953.17
2023-02-03T01:32:43.774Z,953.17
2023-02-03T01:32:53.771Z,953.16
2023-02-03T01:33:03.771Z,953.17
2023-02-03T01:33:13.771Z,953.20
2023-02-03T01:33:23.780Z,953.21
2023-02-03T01:33:33.782Z,953.20
2023-02-03T01:33:43.789Z,953.18
2023-02-03T01:33:53.777Z,953.18
2023-02-03T01:34:03.783Z,953.14
2023-02-03T01:34:13.810Z,953.15
2023-02-03T01:34:23.783Z,953.17
2023-02-03T01:34:33.774Z,953.18
2023-02-03T01:34:43.780Z,953.16
2023-02-03T01:34:53.809Z,953.17
2023-02-03T01:35:03.788Z,953.21
2023-02-03T01:35:13.781Z,953.19
2023-02-03T01:35:23.783Z,953.13
2023-02-03T01:35:33.784Z,953.14
2023-02-03T01:35:43.788Z,953.18
2023-02-03T01:35:53.787Z,953.12
2023-02-03T01:36:03.796Z,953.14
2023-02-03T01:36:13.793Z,953.13
2023-02-03T01:36:23.784Z,953.12
2023-02-03T01:36:33.794Z,953.11
2023-02-03T01:36:43.792Z,953.11
2023-02-03T01:36:53.789Z,953.10
2023-02-03T01:37:03.788Z,953.11
2023-02-03T01:37:13.793Z,953.12
2023-02-03T01:37:23.791Z,953.12
2023-02-03T01:37:33.794Z,953.08
2023-02-03T01:37:43.795Z,953.07
2023-02-03T01:37:53.802Z,953.12
2023-02-03T01:38:03.820Z,952.97
2023-02-03T01:38:13.842Z,953.05
2023-02-03T01:38:23.798Z,953.07
2023-02-03T01:38:33.803Z,953.10
2023-02-03T01:38:43.800Z,953.10
2023-02-03T01:38:53.808Z,953.07
2023-02-03T01:39:03.806Z,953.09
2023-02-03T01:39:13.812Z,953.05
2023-02-03T01:39:23.807Z,953.09
2023-02-03T01:39:33.805Z,953.09
2023-02-03T01:39:43.814Z,953.14
2023-02-03T01:39:53.804Z,953.08
2023-02-03T01:40:03.807Z,953.11
2023-02-03T01:40:13.815Z,953.10
2023-02-03T01:40:23.906Z,953.10
2023-02-03T01:40:33.811Z,953.12
2023-02-03T01:40:43.817Z,953.08
2023-02-03T01:40:53.810Z,953.10
2023-02-03T01:41:03.821Z,953.04
2023-02-03T01:41:13.812Z,953.03
2023-02-03T01:41:23.821Z,953.04
2023-02-03T01:41:33.824Z,953.00
2023-02-03T01:41:43.816Z,953.06
2023-02-03T01:41:53.817Z,953.06
2023-02-03T01:42:03.819Z,953.09
2023-02-03T01:42:13.822Z,953.12
2023-02-03T01:42:23.832Z,953.10
2023-02-03T01:42:33.855Z,953.00
2023-02-03T01:42:43.848Z,953.03
2023-02-03T01:42:53.821Z,953.05
2023-02-03T01:43:03.826Z,953.05
2023-02-03T01:43:13.811Z,953.03
2023-02-03T01:43:23.824Z,952.99
2023-02-03T01:43:33.820Z,952.95
2023-02-03T01:43:43.828Z,953.07
2023-02-03T01:43:53.840Z,953.06
2023-02-03T01:44:03.848Z,953.06
2023-02-03T01:44:13.832Z,953.06
2023-02-03T01:44:23.828Z,953.04
2023-02-03T01:44:33.833Z,953.08
2023-02-03T01:44:43.876Z,953.09
2023-02-03T01:44:53.826Z,953.04
2023-02-03T01:45:03.841Z,953.08
2023-02-03T01:45:13.841Z,953.06
2023-02-03T01:45:23.842Z,953.02
2023-02-03T01:45:33.873Z,952.96
2023-02-03T01:45:43.877Z,953.06
2023-02-03T01:45:53.861Z,953.06
2023-02-03T01:46:03.865Z,953.08
2023-02-03T01:46:13.860Z,953.02
2023-02-03T01:46:23.898Z,953.13
2023-02-03T01:46:33.836Z,953.16
2023-02-03T01:46:43.859Z,953.09
2023-02-03T01:46:53.842Z,953.04
2023-02-03T01:47:03.873Z,953.12
2023-02-03T01:47:13.848Z,953.12
2023-02-03T01:47:23.850Z,953.08
2023-02-03T01:47:33.854Z,953.07
2023-02-03T01:47:43.855Z,953.09
2023-02-03T01:47:53.856Z,953.07
2023-02-03T01:48:03.856Z,953.07
2023-02-03T01:48:13.862Z,953.10
2023-02-03T01:48:23.865Z,952.85
2023-02-03T01:48:33.853Z,952.98
2023-02-03T01:48:43.852Z,953.00
2023-02-03T01:48:53.861Z,953.07
2023-02-03T01:49:03.864Z,953.02
2023-02-03T01:49:13.854Z,953.01
2023-02-03T01:49:23.860Z,953.06
2023-02-03T01:49:33.854Z,953.04
2023-02-03T01:49:43.851Z,953.02
2023-02-03T01:49:53.872Z,953.00
2023-02-03T01:50:03.880Z,953.00
2023-02-03T01:50:13.873Z,953.04
2023-02-03T01:50:24.225Z,952.98
2023-02-03T01:50:33.895Z,953.00
2023-02-03T01:50:43.868Z,952.95
2023-02-03T01:50:53.892Z,952.92
2023-02-03T01:51:03.858Z,953.01
2023-02-03T01:51:13.860Z,953.01
2023-02-03T01:51:23.862Z,953.03
2023-02-03T01:51:33.861Z,953.01
2023-02-03T01:51:43.869Z,952.97
2023-02-03T01:51:53.873Z,953.01
2023-02-03T01:52:03.875Z,953.03
2023-02-03T01:52:13.869Z,953.01
2023-02-03T01:52:23.890Z,953.02
2023-02-03T01:52:33.870Z,952.94
2023-02-03T01:52:43.880Z,952.98
2023-02-03T01:52:53.873Z,952.95
2023-02-03T01:53:03.887Z,952.93
2023-02-03T01:53:13.869Z,952.90
2023-02-03T01:53:23.895Z,952.96
2023-02-03T01:53:33.874Z,952.86
2023-02-03T01:53:43.872Z,952.91
2023-02-03T01:53:53.917Z,952.95
2023-02-03T01:54:03.880Z,952.98
2023-02-03T01:54:13.879Z,952.95
2023-02-03T01:54:23.873Z,952.96
2023-02-03T01:54:33.880Z,952.97
2023-02-03T01:54:43.888Z,952.95
2023-02-03T01:54:53.911Z,952.98
2023-02-03T01:55:03.872Z,952.95
2023-02-03T01:55:13.878Z,952.97
2023-02-03T01:55:23.905Z,952.98
2023-02-03T01:55:33.876Z,952.99
2023-02-03T01:55:43.900Z,952.96
2023-02-03T01:55:53.880Z,952.96
2023-02-03T01:56:03.891Z,952.86
2023-02-03T01:56:13.889Z,952.84
2023-02-03T01:56:23.885Z,952.92
2023-02-03T01:56:33.881Z,952.95
2023-02-03T01:56:43.881Z,952.97
2023-02-03T01:56:53.888Z,952.97
2023-02-03T01:57:03.890Z,952.92
2023-02-03T01:57:14.811Z,952.86
2023-02-03T01:57:23.898Z,953.02
2023-02-03T01:57:33.904Z,952.94
2023-02-03T01:57:43.901Z,952.93
2023-02-03T01:57:53.889Z,952.84
2023-02-03T01:58:03.894Z,952.99
2023-02-03T01:58:13.897Z,953.04
2023-02-03T01:58:23.895Z,953.09
2023-02-03T01:58:33.917Z,953.01
2023-02-03T01:58:43.901Z,953.04
2023-02-03T01:58:53.900Z,953.07
2023-02-03T01:59:03.904Z,953.04
2023-02-03T01:59:13.901Z,953.05
2023-02-03T01:59:23.906Z,953.06
2023-02-03T01:59:33.909Z,953.09
2023-02-03T01:59:43.896Z,953.03
2023-02-03T01:59:53.904Z,953.03
2023-02-03T02:00:03.904Z,953.11
2023-02-03T02:00:13.927Z,953.08
2023-02-03T02:00:24.232Z,953.06
2023-02-03T02:00:33.917Z,953.06
2023-02-03T02:00:43.928Z,953.09
2023-02-03T02:00:53.919Z,953.09
2023-02-03T02:01:03.942Z,953.04
2023-02-03T02:01:13.972Z,953.05
2023-02-03T02:01:23.965Z,953.04
2023-02-03T02:01:33.952Z,952.99
2023-02-03T02:01:44.019Z,953.02
2023-02-03T02:01:53.909Z,952.97
2023-02-03T02:02:03.911Z,953.01
2023-02-03T02:02:13.968Z,953.02
2023-02-03T02:02:23.948Z,953.00
2023-02-03T02:02:33.935Z,953.04
2023-02-03T02:02:44.007Z,953.00
2023-02-03T02:02:53.964Z,953.04
2023-02-03T02:03:03.912Z,953.05
2023-02-03T02:03:13.934Z,952.98
2023-02-03T02:03:23.940Z,952.79
2023-02-03T02:03:33.910Z,952.93
2023-02-03T02:03:43.949Z,953.03
2023-02-03T02:03:53.924Z,952.92
2023-02-03T02:04:03.939Z,952.86
2023-02-03T02:04:13.917Z,952.90
2023-02-03T02:04:23.913Z,952.94
2023-02-03T02:04:33.915Z,953.00
2023-02-03T02:04:43.918Z,952.97